Time;durP1;ratioP1;P1;durP2;ratioP2;P2;SDS_P1;SDS_P2;PMS_P1;PMS_P2;Temp;Humidity;BMP_temperature;BMP_pressure;BME280_temperature;BME280_humidity;BME280_pressure;Samples;Min_cycle;Max_cycle;Signal;HPM_P1;HPM_P2
2022/12/07 00:00:39;;;;;;;;;;;;;;;7.09;63.51;99792.38;5037453;28;20323;-52
2022/12/07 00:03:05;;;;;;;;;;;;;;;6.86;64.19;99792.78;5036943;28;19925;-51
2022/12/07 00:05:30;;;;;;;;;;;;;;;6.67;64.57;99799.16;5038349;28;19931;-49
2022/12/07 00:07:55;;;;;;;;;;;;;;;6.78;64.45;99786.81;5037237;28;19929;-49
2022/12/07 00:10:20;;;;;;;;;;;;;;;6.86;64.66;99781.44;5038091;28;20016;-50
2022/12/07 00:12:46;;;;;;;;;;;;;;;6.86;64.58;99778.81;5037017;28;19925;-51
2022/12/07 00:15:11;;;;;;;;;;;;;;;6.97;64.85;99776.91;5038058;28;19929;-52
2022/12/07 00:17:36;;;;;;;;;;;;;;;6.86;64.49;99778.81;5036727;28;19964;-55
2022/12/07 00:20:02;;;;;;;;;;;;;;;7.01;64.58;99775.09;5040182;28;20340;-52
2022/12/07 00:22:27;;;;;;;;;;;;;;;6.88;64.25;99766.63;5049267;28;19968;-51
2022/12/07 00:24:52;;;;;;;;;;;;;;;6.90;64.69;99778.78;5049984;28;19931;-54
2022/12/07 00:27:17;;;;;;;;;;;;;;;6.96;64.49;99774.31;5049440;28;19929;-53
2022/12/07 00:29:43;;;;;;;;;;;;;;;7.01;64.50;99769.88;5040969;28;20376;-52
2022/12/07 00:32:08;;;;;;;;;;;;;;;7.03;64.11;99763.75;5042204;28;19967;-52
2022/12/07 00:34:33;;;;;;;;;;;;;;;7.04;64.10;99762.84;5050174;28;19929;-50
2022/12/07 00:36:58;;;;;;;;;;;;;;;7.11;64.58;99759.25;5051093;28;20352;-53
2022/12/07 00:39:24;;;;;;;;;;;;;;;7.18;64.03;99753.91;5049324;28;19940;-53
2022/12/07 00:41:49;;;;;;;;;;;;;;;7.30;63.77;99757.19;5050891;28;19978;-54
2022/12/07 00:44:14;;;;;;;;;;;;;;;7.36;63.63;99757.06;5049090;28;19924;-52
2022/12/07 00:46:40;;;;;;;;;;;;;;;7.37;63.76;99750.94;5040972;28;20289;-53
2022/12/07 00:49:05;;;;;;;;;;;;;;;7.40;63.47;99748.28;5036699;28;20391;-53
2022/12/07 00:51:30;;;;;;;;;;;;;;;7.40;63.52;99750.03;5041127;28;19925;-53
2022/12/07 00:53:55;;;;;;;;;;;;;;;7.47;63.65;99738.56;5050558;28;19925;-50
2022/12/07 00:56:22;;;;;;;;;;;;;;;7.26;63.83;99746.78;5040148;28;19937;-53
2022/12/07 00:58:55;;;;;;;;;;;;;;;7.28;63.84;99745.03;5036229;28;19928;-49
2022/12/07 01:01:21;;;;;;;;;;;;;;;7.37;63.73;99743.09;5036977;28;19929;-54
2022/12/07 01:03:46;;;;;;;;;;;;;;;7.33;63.80;99749.25;5036310;28;19928;-52
2022/12/07 01:06:14;;;;;;;;;;;;;;;7.32;63.87;99741.47;5037075;28;19925;-54
2022/12/07 01:08:39;;;;;;;;;;;;;;;7.20;64.21;99741.69;5036057;28;19927;-54
2022/12/07 01:11:06;;;;;;;;;;;;;;;7.05;64.67;99741.06;5035937;28;20011;-50
2022/12/07 01:13:32;;;;;;;;;;;;;;;6.99;65.32;99743.78;5049527;28;19948;-52
2022/12/07 01:15:59;;;;;;;;;;;;;;;7.08;64.72;99740.16;5037063;28;19925;-49
2022/12/07 01:18:25;;;;;;;;;;;;;;;6.85;65.22;99743.16;5035803;28;19977;-50
2022/12/07 01:21:17;;;;;;;;;;;;;;;6.94;65.09;99735.16;5035048;28;19968;-49
2022/12/07 01:23:42;;;;;;;;;;;;;;;6.92;65.30;99729.13;5041548;28;19920;-54
2022/12/07 01:26:10;;;;;;;;;;;;;;;7.04;64.88;99728.91;5048895;28;20000;-55
2022/12/07 01:28:36;;;;;;;;;;;;;;;7.07;64.88;99725.38;5048699;28;19921;-53
2022/12/07 01:31:03;;;;;;;;;;;;;;;7.13;64.61;99727.88;5050543;28;19978;-52
2022/12/07 01:33:29;;;;;;;;;;;;;;;7.15;64.56;99723.50;5038553;28;19967;-52
2022/12/07 01:35:54;;;;;;;;;;;;;;;7.25;64.90;99727.63;5036239;28;19930;-53
2022/12/07 01:38:20;;;;;;;;;;;;;;;7.27;64.54;99710.19;5036797;28;19929;-51
2022/12/07 01:40:45;;;;;;;;;;;;;;;7.28;64.24;99705.81;5036275;28;19925;-51
2022/12/07 01:43:16;;;;;;;;;;;;;;;7.18;64.52;99712.09;5035921;28;19925;-50
2022/12/07 01:45:41;;;;;;;;;;;;;;;7.11;64.80;99704.41;5035125;28;19961;-51
2022/12/07 01:48:08;;;;;;;;;;;;;;;6.90;65.32;99712.59;5035994;28;19956;-53
2022/12/07 01:50:34;;;;;;;;;;;;;;;6.94;65.51;99700.34;5047477;28;19921;-53
2022/12/07 01:53:01;;;;;;;;;;;;;;;6.85;65.86;99706.59;5049739;28;20863;-52
2022/12/07 01:55:26;;;;;;;;;;;;;;;6.96;65.69;99698.59;5062938;28;19927;-51
2022/12/07 01:57:53;;;;;;;;;;;;;;;6.93;65.79;99691.66;5039815;28;19920;-55
2022/12/07 02:00:19;;;;;;;;;;;;;;;7.04;65.52;99686.25;5048313;28;19924;-54
2022/12/07 02:02:49;;;;;;;;;;;;;;;7.04;65.71;99691.47;5049963;28;20016;-55
2022/12/07 02:05:16;;;;;;;;;;;;;;;6.96;66.21;99691.59;5048211;28;20331;-54
2022/12/07 02:07:42;;;;;;;;;;;;;;;7.03;65.57;99692.38;5036235;28;19960;-54
2022/12/07 02:10:20;;;;;;;;;;;;;;;7.10;65.38;99686.13;5039317;28;19960;-55
2022/12/07 02:12:47;;;;;;;;;;;;;;;7.11;65.10;99687.88;5038925;28;19921;-53
2022/12/07 02:15:13;;;;;;;;;;;;;;;7.19;64.84;99679.88;5040226;28;20015;-55
2022/12/07 02:17:51;;;;;;;;;;;;;;;7.28;64.81;99680.56;5038155;28;19971;-55
2022/12/07 02:20:33;;;;;;;;;;;;;;;7.18;64.80;99681.59;5040338;28;19952;-53
2022/12/07 02:23:36;;;;;;;;;;;;;;;7.22;64.88;99677.19;5040495;28;19990;-51
2022/12/07 02:26:04;;;;;;;;;;;;;;;7.24;64.83;99668.44;4981905;28;20349;-51
2022/12/07 02:28:39;;;;;;;;;;;;;;;7.05;64.90;99670.53;4997327;28;19987;-55
2022/12/07 02:31:08;;;;;;;;;;;;;;;7.23;64.94;99668.47;5019728;28;20392;-54
2022/12/07 02:33:45;;;;;;;;;;;;;;;7.28;64.65;99666.63;5052383;28;19966;-53
2022/12/07 02:36:15;;;;;;;;;;;;;;;7.15;65.17;99659.03;5052414;28;19921;-54
2022/12/07 02:39:00;;;;;;;;;;;;;;;7.29;64.54;99652.66;5039078;28;19921;-53
2022/12/07 02:41:27;;;;;;;;;;;;;;;7.27;64.35;99655.31;5040715;28;19925;-52
2022/12/07 02:43:55;;;;;;;;;;;;;;;7.30;64.50;99649.16;5038285;28;19928;-52
2022/12/07 02:46:25;;;;;;;;;;;;;;;7.21;64.69;99650.19;5039801;28;19921;-51
2022/12/07 02:48:51;;;;;;;;;;;;;;;7.24;64.63;99651.91;5038825;28;19968;-51
2022/12/07 02:51:18;;;;;;;;;;;;;;;7.12;64.74;99653.84;5039442;28;19967;-55
2022/12/07 02:53:43;;;;;;;;;;;;;;;7.15;64.83;99645.13;5038674;28;19944;-53
2022/12/07 02:56:33;;;;;;;;;;;;;;;7.19;64.52;99640.69;5038898;28;20373;-52
2022/12/07 02:59:16;;;;;;;;;;;;;;;7.20;64.72;99638.03;5038405;28;19925;-53
2022/12/07 03:01:54;;;;;;;;;;;;;;;7.05;64.63;99636.56;5042237;28;19921;-52
2022/12/07 03:04:45;;;;;;;;;;;;;;;6.65;65.99;99632.06;5039499;28;19932;-53
2022/12/07 03:07:10;;;;;;;;;;;;;;;6.55;66.58;99633.16;5036701;28;19957;-54
2022/12/07 03:09:41;;;;;;;;;;;;;;;6.46;66.88;99635.88;5038813;28;20388;-55
2022/12/07 03:12:11;;;;;;;;;;;;;;;6.57;66.73;99636.56;5036501;28;19921;-55
2022/12/07 03:14:41;;;;;;;;;;;;;;;6.53;66.85;99624.47;5038089;28;19944;-53
2022/12/07 03:17:12;;;;;;;;;;;;;;;6.38;67.38;99624.72;5043580;28;19921;-51
2022/12/07 03:19:39;;;;;;;;;;;;;;;6.31;67.36;99628.34;5050913;28;19920;-51
2022/12/07 03:22:10;;;;;;;;;;;;;;;6.49;67.06;99625.41;5052018;28;20019;-52
2022/12/07 03:24:38;;;;;;;;;;;;;;;6.30;67.59;99631.81;5049382;28;19929;-53
2022/12/07 03:27:09;;;;;;;;;;;;;;;6.31;68.12;99630.94;5037537;28;20281;-55
2022/12/07 03:29:37;;;;;;;;;;;;;;;6.40;67.37;99625.56;5050449;28;20550;-53
2022/12/07 03:32:06;;;;;;;;;;;;;;;6.34;67.40;99612.59;5052156;28;19970;-55
2022/12/07 03:34:41;;;;;;;;;;;;;;;6.27;67.75;99608.41;5037707;28;19920;-51
2022/12/07 03:37:23;;;;;;;;;;;;;;;6.23;67.92;99607.59;5037695;28;20373;-50
2022/12/07 03:40:22;;;;;;;;;;;;;;;6.20;67.90;99610.25;5038098;28;19924;-51
2022/12/07 03:42:48;;;;;;;;;;;;;;;5.95;69.03;99604.56;5028317;28;20428;-51
2022/12/07 03:45:13;;;;;;;;;;;;;;;6.06;68.58;99602.63;5038605;28;19925;-53
2022/12/07 03:47:41;;;;;;;;;;;;;;;5.90;69.11;99611.53;5037288;28;19925;-53
2022/12/07 03:50:11;;;;;;;;;;;;;;;6.11;68.72;99603.44;5037683;28;19966;-53
2022/12/07 03:52:52;;;;;;;;;;;;;;;5.90;69.36;99606.31;5045208;28;19929;-53
2022/12/07 03:55:24;;;;;;;;;;;;;;;5.94;69.54;99608.03;5049323;28;20034;-53
2022/12/07 03:57:50;;;;;;;;;;;;;;;6.05;68.82;99598.28;5051738;28;20011;-51
2022/12/07 04:00:17;;;;;;;;;;;;;;;5.93;69.24;99601.94;5050115;28;19924;-53
2022/12/07 04:02:42;;;;;;;;;;;;;;;5.97;69.21;99607.97;5051815;28;19968;-51
2022/12/07 04:05:08;;;;;;;;;;;;;;;5.85;69.90;99592.50;5051328;28;20033;-52
2022/12/07 04:07:33;;;;;;;;;;;;;;;6.00;69.39;99587.09;5044690;28;20015;-54
2022/12/07 04:09:59;;;;;;;;;;;;;;;6.08;69.22;99585.22;5049394;28;19929;-52
2022/12/07 04:12:24;;;;;;;;;;;;;;;5.78;70.41;99590.84;5037448;28;20363;-51
2022/12/07 04:14:49;;;;;;;;;;;;;;;5.85;70.52;99582.06;5040607;28;19975;-51
2022/12/07 04:17:15;;;;;;;;;;;;;;;5.97;69.69;99579.31;5055254;28;19924;-50
2022/12/07 04:19:40;;;;;;;;;;;;;;;6.04;69.61;99577.47;5046385;28;20308;-52
2022/12/07 04:22:06;;;;;;;;;;;;;;;6.03;69.50;99583.56;5033463;28;20386;-51
2022/12/07 04:24:32;;;;;;;;;;;;;;;6.04;69.77;99582.69;5035031;28;19928;-54
2022/12/07 04:26:57;;;;;;;;;;;;;;;6.09;69.30;99571.28;5034922;28;19921;-51
2022/12/07 04:29:22;;;;;;;;;;;;;;;6.16;69.16;99574.66;5034913;28;19939;-52
2022/12/07 04:31:48;;;;;;;;;;;;;;;6.34;68.36;99569.16;5040655;28;20075;-51
2022/12/07 04:34:14;;;;;;;;;;;;;;;6.25;68.70;99560.59;5054556;28;19956;-51
2022/12/07 04:36:39;;;;;;;;;;;;;;;6.40;68.16;99568.16;5054657;28;20447;-53
2022/12/07 04:39:06;;;;;;;;;;;;;;;6.55;67.93;99567.91;5041299;28;20012;-53
2022/12/07 04:41:31;;;;;;;;;;;;;;;6.55;67.66;99557.44;5034016;28;20387;-50
2022/12/07 04:43:58;;;;;;;;;;;;;;;6.33;68.30;99556.09;5034860;28;19922;-52
2022/12/07 04:46:24;;;;;;;;;;;;;;;6.52;67.89;99552.28;5033924;28;20500;-49
2022/12/07 04:48:50;;;;;;;;;;;;;;;6.17;68.60;99548.53;5034524;28;19967;-51
2022/12/07 04:51:20;;;;;;;;;;;;;;;6.35;68.33;99546.50;5034336;28;19917;-52
2022/12/07 04:53:45;;;;;;;;;;;;;;;6.26;68.67;99546.66;5034131;28;19960;-54
2022/12/07 04:56:10;;;;;;;;;;;;;;;6.12;68.97;99545.16;5033177;28;20014;-53
2022/12/07 04:58:36;;;;;;;;;;;;;;;6.14;68.65;99530.34;5034334;28;19921;-53
2022/12/07 05:01:01;;;;;;;;;;;;;;;6.22;68.91;99538.03;5036512;28;20027;-50
2022/12/07 05:03:26;;;;;;;;;;;;;;;6.24;68.80;99532.78;5053492;28;19921;-49
2022/12/07 05:05:52;;;;;;;;;;;;;;;6.45;68.09;99537.63;5051681;28;20409;-50
2022/12/07 05:08:17;;;;;;;;;;;;;;;6.41;68.05;99535.94;5052118;28;19923;-49
2022/12/07 05:10:42;;;;;;;;;;;;;;;6.32;68.41;99536.97;5053930;28;20376;-53
2022/12/07 05:13:07;;;;;;;;;;;;;;;6.17;68.70;99529.41;5048778;28;19920;-50
2022/12/07 05:15:33;;;;;;;;;;;;;;;6.37;68.35;99531.69;5053963;28;19970;-50
2022/12/07 05:17:58;;;;;;;;;;;;;;;6.27;68.44;99531.00;5053961;28;19967;-50
2022/12/07 05:20:24;;;;;;;;;;;;;;;6.30;68.64;99528.31;5053270;28;19925;-48
2022/12/07 05:22:49;;;;;;;;;;;;;;;6.13;69.03;99531.22;5032386;28;19921;-50
2022/12/07 05:25:14;;;;;;;;;;;;;;;6.18;69.12;99528.53;5038059;28;19928;-49
2022/12/07 05:27:39;;;;;;;;;;;;;;;5.94;69.89;99535.00;5035420;28;19929;-48
2022/12/07 05:30:05;;;;;;;;;;;;;;;6.17;69.19;99532.03;5038417;28;19947;-53
2022/12/07 05:32:30;;;;;;;;;;;;;;;6.20;68.76;99520.69;5035617;28;20335;-50
2022/12/07 05:34:55;;;;;;;;;;;;;;;6.16;69.16;99525.09;5033079;28;19925;-51
2022/12/07 05:37:21;;;;;;;;;;;;;;;6.43;68.46;99528.13;5044987;28;19928;-50
2022/12/07 05:39:46;;;;;;;;;;;;;;;6.34;68.77;99527.41;5040675;28;20731;-51
2022/12/07 05:42:11;;;;;;;;;;;;;;;6.23;68.79;99525.88;5034052;28;19921;-51
2022/12/07 05:44:37;;;;;;;;;;;;;;;6.22;68.62;99521.50;5043981;28;20674;-53
2022/12/07 05:47:02;;;;;;;;;;;;;;;6.35;68.64;99520.44;5043762;28;19978;-50
2022/12/07 05:49:28;;;;;;;;;;;;;;;6.08;69.21;99522.63;5039205;28;19924;-50
2022/12/07 05:51:53;;;;;;;;;;;;;;;6.29;68.75;99521.38;5044842;28;19971;-51
2022/12/07 05:54:18;;;;;;;;;;;;;;;6.44;68.40;99517.63;5041044;28;20009;-51
2022/12/07 05:56:43;;;;;;;;;;;;;;;6.36;68.26;99528.22;5042693;28;19921;-53
2022/12/07 05:59:24;;;;;;;;;;;;;;;6.44;68.42;99519.38;5036355;28;19921;-54
2022/12/07 06:01:49;;;;;;;;;;;;;;;6.42;68.85;99516.78;5036279;28;19936;-54
2022/12/07 06:04:15;;;;;;;;;;;;;;;6.47;68.45;99517.59;5038843;28;19933;-55
2022/12/07 06:06:40;;;;;;;;;;;;;;;6.26;67.85;99515.34;5041244;28;19921;-54
2022/12/07 06:09:06;;;;;;;;;;;;;;;6.16;68.11;99510.31;5046539;28;19933;-51
2022/12/07 06:14:20;;;;;;;;;;;;;;;5.89;68.90;99522.03;5044870;28;19933;-52
2022/12/07 06:16:45;;;;;;;;;;;;;;;5.97;68.86;99510.66;5043139;28;19939;-51
2022/12/07 06:19:10;;;;;;;;;;;;;;;5.89;68.97;99508.13;5042871;28;20008;-54
2022/12/07 06:21:36;;;;;;;;;;;;;;;5.69;69.68;99511.91;5043663;28;20002;-53
2022/12/07 06:24:01;;;;;;;;;;;;;;;5.93;68.70;99499.41;5037087;28;19921;-52
2022/12/07 06:26:27;;;;;;;;;;;;;;;5.99;68.49;99511.50;5045420;28;20403;-55
2022/12/07 06:28:52;;;;;;;;;;;;;;;6.05;68.79;99508.75;5036705;28;19917;-54
2022/12/07 06:31:17;;;;;;;;;;;;;;;5.92;68.52;99506.38;5036642;28;19924;-55
2022/12/07 06:33:42;;;;;;;;;;;;;;;5.85;68.66;99509.06;5056846;28;19921;-53
2022/12/07 06:36:08;;;;;;;;;;;;;;;5.81;68.79;99504.78;5056924;28;20034;-52
2022/12/07 06:38:34;;;;;;;;;;;;;;;5.82;68.81;99494.31;5057227;28;19916;-52
2022/12/07 06:40:59;;;;;;;;;;;;;;;5.91;68.78;99506.38;5056968;28;19942;-54
2022/12/07 06:43:24;;;;;;;;;;;;;;;5.75;68.82;99508.38;5056857;28;19921;-52
2022/12/07 06:45:50;;;;;;;;;;;;;;;5.47;69.50;99499.25;5056811;28;19917;-52
2022/12/07 06:48:15;;;;;;;;;;;;;;;5.71;68.84;99501.47;5056824;28;20356;-53
2022/12/07 06:50:41;;;;;;;;;;;;;;;5.75;68.50;99497.94;5056343;28;19920;-51
2022/12/07 06:53:07;;;;;;;;;;;;;;;6.76;64.96;99498.75;5056850;28;19975;-55
2022/12/07 06:55:32;;;;;;;;;;;;;;;5.48;68.87;99499.22;5054558;28;19921;-53
2022/12/07 06:57:58;;;;;;;;;;;;;;;5.46;69.10;99498.38;5056391;28;19967;-52
2022/12/07 07:00:23;;;;;;;;;;;;;;;5.34;69.54;99501.16;5056003;28;20387;-51
2022/12/07 07:02:48;;;;;;;;;;;;;;;5.46;69.22;99494.91;5056317;28;20023;-52
2022/12/07 07:05:14;;;;;;;;;;;;;;;5.50;68.84;99493.97;5051302;28;20364;-55
2022/12/07 07:07:39;;;;;;;;;;;;;;;5.49;68.87;99500.94;5072290;28;20372;-53
2022/12/07 07:10:05;;;;;;;;;;;;;;;5.51;69.08;99488.75;5069700;28;20441;-51
2022/12/07 07:12:30;;;;;;;;;;;;;;;5.66;68.53;99492.84;5056184;28;19920;-54
2022/12/07 07:14:56;;;;;;;;;;;;;;;5.77;68.33;99495.28;5039193;28;19932;-52
2022/12/07 07:17:21;;;;;;;;;;;;;;;5.68;68.59;99484.13;5055639;28;20008;-54
2022/12/07 07:19:46;;;;;;;;;;;;;;;5.61;69.22;99492.94;5053094;28;19970;-51
2022/12/07 07:22:12;;;;;;;;;;;;;;;5.70;68.54;99494.53;5047395;28;20381;-52
2022/12/07 07:24:37;;;;;;;;;;;;;;;5.62;69.97;99492.03;5046977;28;19932;-56
2022/12/07 07:27:02;;;;;;;;;;;;;;;5.90;68.50;99496.81;5045719;28;20051;-53
2022/12/07 07:29:28;;;;;;;;;;;;;;;6.03;68.48;99487.94;5046504;28;20312;-52
2022/12/07 07:31:53;;;;;;;;;;;;;;;5.93;67.55;99495.03;5047419;28;19928;-54
2022/12/07 07:34:18;;;;;;;;;;;;;;;6.19;67.28;99498.97;5060778;28;19972;-52
2022/12/07 07:36:44;;;;;;;;;;;;;;;6.02;67.62;99501.84;5045035;28;20423;-48
2022/12/07 07:39:09;;;;;;;;;;;;;;;5.90;67.29;99504.63;5071974;28;19974;-51
2022/12/07 07:41:35;;;;;;;;;;;;;;;5.87;67.41;99502.09;5068685;28;19929;-49
2022/12/07 07:44:00;;;;;;;;;;;;;;;5.76;68.13;99502.25;5038551;28;19925;-52
2022/12/07 07:46:25;;;;;;;;;;;;;;;5.45;69.01;99507.06;5037931;28;19925;-50
2022/12/07 07:48:50;;;;;;;;;;;;;;;5.99;67.96;99507.13;5051057;28;19933;-53
2022/12/07 07:51:16;;;;;;;;;;;;;;;6.24;67.17;99499.72;5037390;28;19972;-53
2022/12/07 07:53:41;;;;;;;;;;;;;;;6.41;66.55;99502.03;5033990;28;19933;-51
2022/12/07 07:56:06;;;;;;;;;;;;;;;6.70;65.88;99496.25;5036346;28;19928;-54
2022/12/07 07:58:32;;;;;;;;;;;;;;;6.84;65.26;99498.59;5048348;28;19967;-52
2022/12/07 08:01:03;;;;;;;;;;;;;;;6.93;65.07;99494.91;5051153;28;19974;-49
2022/12/07 08:03:28;;;;;;;;;;;;;;;6.83;64.85;99492.50;5050190;28;19925;-51
2022/12/07 08:05:53;;;;;;;;;;;;;;;6.86;66.02;99487.22;5050272;28;20303;-50
2022/12/07 08:08:18;;;;;;;;;;;;;;;6.81;65.13;99496.03;5051759;28;19936;-52
2022/12/07 08:10:44;;;;;;;;;;;;;;;6.68;64.60;99492.81;5050224;28;19925;-50
2022/12/07 08:13:13;;;;;;;;;;;;;;;6.24;64.91;99494.53;5044480;28;19982;-54
2022/12/07 08:15:40;;;;;;;;;;;;;;;6.28;65.38;99484.88;5038127;28;19937;-53
2022/12/07 08:18:05;;;;;;;;;;;;;;;6.43;64.74;99482.00;5037103;28;19922;-53
2022/12/07 08:20:32;;;;;;;;;;;;;;;6.27;64.18;99491.00;5039611;28;19951;-52
2022/12/07 08:22:57;;;;;;;;;;;;;;;6.38;65.00;99489.03;5037005;28;20328;-54
2022/12/07 08:25:22;;;;;;;;;;;;;;;6.55;63.34;99486.97;5034908;28;19932;-52
2022/12/07 08:27:48;;;;;;;;;;;;;;;6.14;64.47;99479.91;5049825;28;20320;-51
2022/12/07 08:30:13;;;;;;;;;;;;;;;5.75;65.33;99494.47;5050855;28;19935;-54
2022/12/07 08:32:39;;;;;;;;;;;;;;;5.91;65.16;99475.94;5049285;28;19933;-50
2022/12/07 08:35:04;;;;;;;;;;;;;;;5.81;65.61;99482.19;5047509;28;20008;-51
2022/12/07 08:37:29;;;;;;;;;;;;;;;5.71;66.67;99474.56;5047731;28;19929;-50
2022/12/07 08:39:55;;;;;;;;;;;;;;;5.52;66.70;99489.63;5051313;28;19932;-51
2022/12/07 08:42:22;;;;;;;;;;;;;;;5.67;65.96;99469.38;5044886;28;19971;-51
2022/12/07 08:44:48;;;;;;;;;;;;;;;6.04;65.66;99479.22;5050513;28;19931;-50
2022/12/07 08:47:13;;;;;;;;;;;;;;;5.95;64.48;99474.19;5035398;28;20023;-49
2022/12/07 08:49:43;;;;;;;;;;;;;;;5.64;65.69;99469.44;5034249;28;19944;-51
2022/12/07 08:52:09;;;;;;;;;;;;;;;5.98;64.73;99471.50;5037456;28;19925;-50
2022/12/07 08:54:36;;;;;;;;;;;;;;;6.15;64.31;99474.69;5035545;28;19932;-50
2022/12/07 08:57:01;;;;;;;;;;;;;;;5.46;65.53;99468.84;5034878;28;20274;-51
2022/12/07 08:59:28;;;;;;;;;;;;;;;5.75;65.25;99469.28;5031355;28;20404;-51
2022/12/07 09:01:53;;;;;;;;;;;;;;;5.82;64.64;99463.03;5051344;28;19925;-55
2022/12/07 09:04:18;;;;;;;;;;;;;;;5.71;64.92;99469.34;5054033;28;19991;-51
2022/12/07 09:06:44;;;;;;;;;;;;;;;5.73;65.28;99465.81;5052975;28;20364;-52
2022/12/07 09:09:10;;;;;;;;;;;;;;;6.04;65.03;99468.78;5054141;28;19921;-51
2022/12/07 09:11:35;;;;;;;;;;;;;;;6.00;64.12;99469.72;5054207;28;19917;-55
2022/12/07 09:14:00;;;;;;;;;;;;;;;6.09;64.11;99471.31;5054160;28;19967;-52
2022/12/07 09:16:25;;;;;;;;;;;;;;;6.25;63.79;99466.69;5036365;28;19975;-54
2022/12/07 09:18:51;;;;;;;;;;;;;;;6.47;63.24;99459.31;5033784;28;20320;-51
2022/12/07 09:21:16;;;;;;;;;;;;;;;6.50;63.31;99460.09;5035082;28;20327;-54
2022/12/07 09:23:42;;;;;;;;;;;;;;;6.36;63.35;99452.53;5034038;28;19921;-51
2022/12/07 09:26:07;;;;;;;;;;;;;;;6.12;63.28;99456.47;5034545;28;19928;-53
2022/12/07 09:28:33;;;;;;;;;;;;;;;6.14;63.54;99454.72;5034064;28;19921;-52
2022/12/07 09:30:58;;;;;;;;;;;;;;;6.38;63.30;99458.59;5045319;28;20428;-52
2022/12/07 09:33:24;;;;;;;;;;;;;;;6.23;63.22;99463.25;5035443;28;19978;-53
2022/12/07 09:35:49;;;;;;;;;;;;;;;6.25;64.08;99453.63;5034000;28;19917;-52
2022/12/07 09:38:15;;;;;;;;;;;;;;;6.06;63.06;99456.56;5034315;28;20013;-49
2022/12/07 09:40:43;;;;;;;;;;;;;;;6.26;63.13;99457.97;5032279;28;19922;-53
2022/12/07 09:43:13;;;;;;;;;;;;;;;6.43;62.81;99455.91;5034008;28;20372;-49
2022/12/07 09:45:38;;;;;;;;;;;;;;;6.25;62.54;99451.03;5033960;28;19924;-49
2022/12/07 09:48:04;;;;;;;;;;;;;;;6.17;62.66;99457.25;5033360;28;19933;-50
2022/12/07 09:50:29;;;;;;;;;;;;;;;5.98;63.42;99455.00;5039651;28;20273;-52
2022/12/07 09:53:04;;;;;;;;;;;;;;;6.11;62.94;99464.34;5049197;28;19929;-50
2022/12/07 09:55:30;;;;;;;;;;;;;;;5.98;63.45;99458.47;5038598;28;19999;-51
2022/12/07 09:57:57;;;;;;;;;;;;;;;5.85;63.86;99457.78;5045249;28;19921;-51
2022/12/07 10:00:23;;;;;;;;;;;;;;;6.08;63.05;99439.16;5049607;28;19972;-53
2022/12/07 10:02:58;;;;;;;;;;;;;;;6.03;63.52;99448.81;5040575;28;19957;-53
2022/12/07 10:05:32;;;;;;;;;;;;;;;6.16;62.96;99442.50;5049332;28;19921;-51
2022/12/07 10:07:57;;;;;;;;;;;;;;;5.91;63.48;99441.19;5048839;28;19927;-51
2022/12/07 10:10:24;;;;;;;;;;;;;;;6.22;62.69;99446.72;5049111;28;19924;-53
2022/12/07 10:12:57;;;;;;;;;;;;;;;5.83;62.82;99440.47;5049392;28;19978;-53
2022/12/07 10:15:22;;;;;;;;;;;;;;;5.69;63.80;99440.69;5042197;28;20426;-53
2022/12/07 10:17:51;;;;;;;;;;;;;;;5.75;63.43;99444.94;5035497;28;19921;-54
2022/12/07 10:20:27;;;;;;;;;;;;;;;5.64;64.20;99445.97;5049382;28;19928;-50
2022/12/07 10:23:02;;;;;;;;;;;;;;;5.63;64.01;99436.44;5039790;28;19947;-51
2022/12/07 10:25:32;;;;;;;;;;;;;;;5.78;64.02;99447.47;5036032;28;20344;-52
2022/12/07 10:27:59;;;;;;;;;;;;;;;5.75;64.41;99435.38;5036847;28;19917;-52
2022/12/07 10:30:24;;;;;;;;;;;;;;;6.01;63.15;99442.75;5038269;28;19921;-51
2022/12/07 10:32:50;;;;;;;;;;;;;;;6.15;62.94;99440.78;5039230;28;19924;-51
2022/12/07 10:35:21;;;;;;;;;;;;;;;5.76;63.63;99437.09;5040059;28;19927;-52
2022/12/07 10:37:47;;;;;;;;;;;;;;;5.58;64.51;99433.03;5038941;28;20266;-52
2022/12/07 10:40:24;;;;;;;;;;;;;;;5.73;63.27;99429.31;5048356;28;19921;-51
2022/12/07 10:43:00;;;;;;;;;;;;;;;6.05;61.54;99441.81;5053130;28;19920;-53
2022/12/07 10:45:25;;;;;;;;;;;;;;;5.69;62.51;99431.13;5038991;28;19928;-54
2022/12/07 10:47:53;;;;;;;;;;;;;;;5.91;61.22;99429.00;5038873;28;20300;-54
2022/12/07 10:50:31;;;;;;;;;;;;;;;5.46;62.50;99425.41;5052079;28;19917;-51
2022/12/07 10:52:56;;;;;;;;;;;;;;;5.32;62.69;99430.84;5052586;28;19970;-52
2022/12/07 10:55:36;;;;;;;;;;;;;;;5.72;61.77;99429.34;5052057;28;20387;-51
2022/12/07 10:58:04;;;;;;;;;;;;;;;5.74;61.48;99428.44;5052627;28;19921;-53
2022/12/07 11:00:37;;;;;;;;;;;;;;;5.77;61.70;99422.31;5038386;28;19925;-53
2022/12/07 11:03:23;;;;;;;;;;;;;;;6.03;61.67;99416.69;5039316;28;19922;-52
2022/12/07 11:05:48;;;;;;;;;;;;;;;5.71;62.13;99422.44;5038687;28;20447;-54
2022/12/07 11:08:32;;;;;;;;;;;;;;;5.86;62.16;99417.78;5041491;28;19968;-51
2022/12/07 11:11:20;;;;;;;;;;;;;;;6.10;62.33;99407.81;5044980;28;19921;-53
2022/12/07 11:14:01;;;;;;;;;;;;;;;6.43;61.21;99397.66;5037810;28;20395;-52
2022/12/07 11:16:45;;;;;;;;;;;;;;;6.37;60.89;99396.00;5045669;28;19924;-52
2022/12/07 11:19:10;;;;;;;;;;;;;;;6.33;60.71;99389.97;5040610;28;19935;-55
2022/12/07 11:21:35;;;;;;;;;;;;;;;6.40;60.63;99390.72;5051477;28;20012;-50
2022/12/07 11:24:01;;;;;;;;;;;;;;;6.62;61.07;99381.56;5044687;28;19921;-50
2022/12/07 11:26:41;;;;;;;;;;;;;;;6.62;60.59;99376.34;5037950;28;19921;-52
2022/12/07 11:29:30;;;;;;;;;;;;;;;6.91;63.62;99372.22;5040660;28;19928;-52
2022/12/07 11:32:06;;;;;;;;;;;;;;;6.81;59.35;99371.56;5024753;28;19921;-50
2022/12/07 11:34:49;;;;;;;;;;;;;;;6.65;60.86;99365.81;5040122;28;20293;-54
2022/12/07 11:37:20;;;;;;;;;;;;;;;6.60;60.47;99359.84;5050367;28;19965;-52
2022/12/07 11:39:46;;;;;;;;;;;;;;;6.94;61.75;99346.03;5051973;28;19921;-51
2022/12/07 11:42:19;;;;;;;;;;;;;;;7.29;60.66;99357.38;5038158;28;19921;-50
2022/12/07 11:45:13;;;;;;;;;;;;;;;7.01;59.60;99347.59;5042116;28;20004;-49
2022/12/07 11:47:53;;;;;;;;;;;;;;;7.23;59.08;99353.19;5041755;28;20059;-51
2022/12/07 11:50:33;;;;;;;;;;;;;;;7.09;60.13;99342.19;5050997;28;19921;-51
2022/12/07 11:53:01;;;;;;;;;;;;;;;7.01;60.01;99342.38;5051105;28;19925;-50
2022/12/07 11:55:40;;;;;;;;;;;;;;;7.02;59.48;99341.50;5047455;28;20377;-50
2022/12/07 11:58:15;;;;;;;;;;;;;;;6.49;59.67;99343.56;5041982;28;19927;-50
2022/12/07 12:00:41;;;;;;;;;;;;;;;6.66;59.50;99343.19;5041553;28;20024;-50
2022/12/07 12:03:13;;;;;;;;;;;;;;;6.83;59.29;99340.22;5038228;28;19975;-52
2022/12/07 12:05:40;;;;;;;;;;;;;;;6.78;59.82;99336.81;5044388;28;20397;-53
2022/12/07 12:08:28;;;;;;;;;;;;;;;6.93;60.56;99330.41;5047138;28;19925;-51
2022/12/07 12:10:59;;;;;;;;;;;;;;;6.84;59.13;99349.75;5039784;28;20391;-51
2022/12/07 12:13:34;;;;;;;;;;;;;;;7.01;59.88;99331.06;5037334;28;20007;-51
2022/12/07 12:16:07;;;;;;;;;;;;;;;7.07;59.58;99329.19;5038285;28;19921;-51
2022/12/07 12:18:39;;;;;;;;;;;;;;;7.16;58.93;99335.94;5037252;28;19921;-50
2022/12/07 12:21:08;;;;;;;;;;;;;;;6.86;59.04;99329.66;5038226;28;20048;-50
2022/12/07 12:23:36;;;;;;;;;;;;;;;7.00;60.50;99327.59;5036920;28;20389;-51
2022/12/07 12:26:04;;;;;;;;;;;;;;;7.02;59.81;99328.44;5041895;28;19921;-51
2022/12/07 12:28:37;;;;;;;;;;;;;;;7.05;59.52;99330.09;5036791;28;20008;-54
2022/12/07 12:31:13;;;;;;;;;;;;;;;7.29;59.20;99324.28;5037663;28;19921;-54
2022/12/07 12:33:42;;;;;;;;;;;;;;;7.09;59.32;99322.16;5035564;28;19921;-51
2022/12/07 12:36:24;;;;;;;;;;;;;;;7.24;59.56;99322.69;5037674;28;20372;-53
2022/12/07 12:39:10;;;;;;;;;;;;;;;7.06;58.49;99319.63;5036477;28;19925;-51
2022/12/07 12:41:41;;;;;;;;;;;;;;;7.08;58.56;99316.97;5035812;28;19925;-54
2022/12/07 12:44:15;;;;;;;;;;;;;;;7.19;59.04;99321.94;5037853;28;19928;-52
2022/12/07 12:46:46;;;;;;;;;;;;;;;7.11;58.98;99315.16;5036887;28;19924;-55
2022/12/07 12:49:14;;;;;;;;;;;;;;;6.99;59.02;99318.06;5038763;28;20019;-51
2022/12/07 12:51:41;;;;;;;;;;;;;;;6.90;58.95;99310.44;5033823;28;19921;-52
2022/12/07 12:54:19;;;;;;;;;;;;;;;6.83;60.03;99298.44;5043970;28;19932;-54
2022/12/07 12:56:47;;;;;;;;;;;;;;;6.88;60.53;99304.41;5040580;28;19921;-53
2022/12/07 12:59:23;;;;;;;;;;;;;;;6.91;59.66;99301.72;5033153;28;19917;-51
2022/12/07 13:01:49;;;;;;;;;;;;;;;6.22;60.68;99291.97;5036800;28;19928;-52
2022/12/07 13:04:26;;;;;;;;;;;;;;;6.54;60.43;99292.13;5037129;28;19929;-54
2022/12/07 13:06:52;;;;;;;;;;;;;;;6.22;61.13;99289.34;5036217;28;19979;-51